sensor_id;sensor_type;location;lat;lon;timestamp;P1;durP1;ratioP1;P2;durP2;ratioP2
9689;SDS011;4884;42.614;23.340;2023-03-21T00:00:53;11.17;;;7.93;;
9689;SDS011;4884;42.614;23.340;2023-03-21T00:03:22;10.47;;;6.67;;
9689;SDS011;4884;42.614;23.340;2023-03-21T00:05:48;7.83;;;5.33;;
9689;SDS011;4884;42.614;23.340;2023-03-21T00:08:16;8.83;;;6.33;;
9689;SDS011;4884;42.614;23.340;2023-03-21T00:10:41;10.17;;;6.90;;
9689;SDS011;4884;42.614;23.340;2023-03-21T00:13:07;7.57;;;5.47;;
9689;SDS011;4884;42.614;23.340;2023-03-21T00:15:32;8.77;;;5.80;;
9689;SDS011;4884;42.614;23.340;2023-03-21T00:17:58;9.87;;;7.17;;
9689;SDS011;4884;42.614;23.340;2023-03-21T00:20:28;11.23;;;8.50;;
9689;SDS011;4884;42.614;23.340;2023-03-21T00:22:55;13.17;;;9.87;;
9689;SDS011;4884;42.614;23.340;2023-03-21T00:25:20;17.20;;;10.87;;
9689;SDS011;4884;42.614;23.340;2023-03-21T00:27:45;13.03;;;9.47;;
9689;SDS011;4884;42.614;23.340;2023-03-21T00:30:11;13.33;;;10.70;;
9689;SDS011;4884;42.614;23.340;2023-03-21T00:32:36;15.23;;;10.20;;
9689;SDS011;4884;42.614;23.340;2023-03-21T00:35:02;15.77;;;9.97;;
9689;SDS011;4884;42.614;23.340;2023-03-21T00:37:27;13.23;;;9.13;;
9689;SDS011;4884;42.614;23.340;2023-03-21T00:39:52;12.60;;;10.10;;
9689;SDS011;4884;42.614;23.340;2023-03-21T00:42:18;18.33;;;12.03;;
9689;SDS011;4884;42.614;23.340;2023-03-21T00:44:43;15.37;;;10.27;;
9689;SDS011;4884;42.614;23.340;2023-03-21T00:47:12;12.67;;;9.87;;
9689;SDS011;4884;42.614;23.340;2023-03-21T00:49:37;11.03;;;8.90;;
9689;SDS011;4884;42.614;23.340;2023-03-21T00:52:04;12.20;;;9.63;;
9689;SDS011;4884;42.614;23.340;2023-03-21T00:54:33;15.60;;;9.93;;
9689;SDS011;4884;42.614;23.340;2023-03-21T00:56:59;9.53;;;8.63;;
9689;SDS011;4884;42.614;23.340;2023-03-21T00:59:25;13.20;;;11.80;;
9689;SDS011;4884;42.614;23.340;2023-03-21T01:01:51;16.10;;;11.53;;
9689;SDS011;4884;42.614;23.340;2023-03-21T01:04:17;8.73;;;7.20;;
9689;SDS011;4884;42.614;23.340;2023-03-21T01:06:43;9.47;;;6.47;;
9689;SDS011;4884;42.614;23.340;2023-03-21T01:09:19;13.73;;;9.50;;
9689;SDS011;4884;42.614;23.340;2023-03-21T01:11:46;9.27;;;8.20;;
9689;SDS011;4884;42.614;23.340;2023-03-21T01:14:13;6.83;;;5.47;;
9689;SDS011;4884;42.614;23.340;2023-03-21T01:16:38;10.13;;;5.43;;
9689;SDS011;4884;42.614;23.340;2023-03-21T01:19:04;6.33;;;5.17;;
9689;SDS011;4884;42.614;23.340;2023-03-21T01:21:31;4.47;;;3.67;;
9689;SDS011;4884;42.614;23.340;2023-03-21T01:23:56;5.27;;;3.60;;
9689;SDS011;4884;42.614;23.340;2023-03-21T01:26:22;5.77;;;4.23;;
9689;SDS011;4884;42.614;23.340;2023-03-21T01:28:47;6.23;;;3.90;;
9689;SDS011;4884;42.614;23.340;2023-03-21T01:31:14;5.03;;;4.30;;
9689;SDS011;4884;42.614;23.340;2023-03-21T01:33:41;8.00;;;4.67;;
9689;SDS011;4884;42.614;23.340;2023-03-21T01:36:07;6.70;;;4.23;;
9689;SDS011;4884;42.614;23.340;2023-03-21T01:38:33;6.13;;;3.77;;
9689;SDS011;4884;42.614;23.340;2023-03-21T01:40:59;5.27;;;3.80;;
9689;SDS011;4884;42.614;23.340;2023-03-21T01:46:09;8.50;;;5.73;;
9689;SDS011;4884;42.614;23.340;2023-03-21T01:48:36;10.37;;;5.47;;
9689;SDS011;4884;42.614;23.340;2023-03-21T01:51:05;7.57;;;5.97;;
9689;SDS011;4884;42.614;23.340;2023-03-21T01:53:31;10.00;;;6.33;;
9689;SDS011;4884;42.614;23.340;2023-03-21T01:56:43;7.37;;;5.37;;
9689;SDS011;4884;42.614;23.340;2023-03-21T01:58:54;7.90;;;5.23;;
9689;SDS011;4884;42.614;23.340;2023-03-21T02:01:22;5.80;;;5.20;;
9689;SDS011;4884;42.614;23.340;2023-03-21T02:03:48;6.70;;;5.23;;
9689;SDS011;4884;42.614;23.340;2023-03-21T02:06:32;5.90;;;4.03;;
9689;SDS011;4884;42.614;23.340;2023-03-21T02:09:04;4.77;;;3.97;;
9689;SDS011;4884;42.614;23.340;2023-03-21T02:11:32;6.13;;;4.17;;
9689;SDS011;4884;42.614;23.340;2023-03-21T02:13:58;6.67;;;4.67;;
9689;SDS011;4884;42.614;23.340;2023-03-21T02:16:27;6.93;;;3.83;;
9689;SDS011;4884;42.614;23.340;2023-03-21T02:27:18;5.80;;;3.83;;
9689;SDS011;4884;42.614;23.340;2023-03-21T02:35:21;11.30;;;7.60;;
9689;SDS011;4884;42.614;23.340;2023-03-21T02:37:58;7.67;;;5.53;;
9689;SDS011;4884;42.614;23.340;2023-03-21T02:45:50;9.00;;;5.17;;
9689;SDS011;4884;42.614;23.340;2023-03-21T02:48:21;9.43;;;4.87;;
9689;SDS011;4884;42.614;23.340;2023-03-21T02:50:50;12.03;;;5.57;;
9689;SDS011;4884;42.614;23.340;2023-03-21T02:53:17;8.70;;;5.53;;
9689;SDS011;4884;42.614;23.340;2023-03-21T02:55:44;9.93;;;5.50;;
9689;SDS011;4884;42.614;23.340;2023-03-21T02:58:11;11.00;;;6.43;;
9689;SDS011;4884;42.614;23.340;2023-03-21T03:00:40;7.50;;;5.20;;
9689;SDS011;4884;42.614;23.340;2023-03-21T03:03:08;7.43;;;5.47;;
9689;SDS011;4884;42.614;23.340;2023-03-21T03:05:36;11.73;;;5.57;;
9689;SDS011;4884;42.614;23.340;2023-03-21T03:10:52;6.83;;;5.30;;
9689;SDS011;4884;42.614;23.340;2023-03-21T03:13:34;9.77;;;5.83;;
9689;SDS011;4884;42.614;23.340;2023-03-21T03:19:03;7.70;;;5.10;;
9689;SDS011;4884;42.614;23.340;2023-03-21T03:29:12;9.77;;;6.13;;
9689;SDS011;4884;42.614;23.340;2023-03-21T03:31:41;9.43;;;6.40;;
9689;SDS011;4884;42.614;23.340;2023-03-21T03:34:11;11.57;;;6.77;;
9689;SDS011;4884;42.614;23.340;2023-03-21T03:36:41;11.83;;;7.47;;
9689;SDS011;4884;42.614;23.340;2023-03-21T03:39:09;12.57;;;7.43;;
9689;SDS011;4884;42.614;23.340;2023-03-21T03:41:46;13.47;;;7.80;;
9689;SDS011;4884;42.614;23.340;2023-03-21T03:44:15;15.63;;;8.10;;
9689;SDS011;4884;42.614;23.340;2023-03-21T03:46:45;11.17;;;8.23;;
9689;SDS011;4884;42.614;23.340;2023-03-21T03:49:30;10.17;;;7.63;;
9689;SDS011;4884;42.614;23.340;2023-03-21T03:52:17;17.40;;;8.27;;
9689;SDS011;4884;42.614;23.340;2023-03-21T03:54:53;13.47;;;7.87;;
9689;SDS011;4884;42.614;23.340;2023-03-21T03:57:19;10.60;;;8.67;;
9689;SDS011;4884;42.614;23.340;2023-03-21T03:59:45;12.37;;;8.93;;
9689;SDS011;4884;42.614;23.340;2023-03-21T04:02:11;11.47;;;10.27;;
9689;SDS011;4884;42.614;23.340;2023-03-21T04:04:37;17.13;;;12.33;;
9689;SDS011;4884;42.614;23.340;2023-03-21T04:07:03;13.17;;;9.20;;
9689;SDS011;4884;42.614;23.340;2023-03-21T04:09:30;15.93;;;10.57;;
9689;SDS011;4884;42.614;23.340;2023-03-21T04:11:56;10.10;;;8.07;;
9689;SDS011;4884;42.614;23.340;2023-03-21T04:14:22;9.00;;;7.40;;
9689;SDS011;4884;42.614;23.340;2023-03-21T04:16:47;7.23;;;5.47;;
9689;SDS011;4884;42.614;23.340;2023-03-21T04:19:14;10.00;;;4.70;;
9689;SDS011;4884;42.614;23.340;2023-03-21T04:21:40;8.30;;;5.77;;
9689;SDS011;4884;42.614;23.340;2023-03-21T04:24:06;45.73;;;31.80;;
9689;SDS011;4884;42.614;23.340;2023-03-21T04:26:32;32.13;;;25.10;;
9689;SDS011;4884;42.614;23.340;2023-03-21T04:28:59;19.70;;;14.67;;
9689;SDS011;4884;42.614;23.340;2023-03-21T04:31:28;15.30;;;10.47;;
9689;SDS011;4884;42.614;23.340;2023-03-21T04:34:02;53.80;;;40.23;;
9689;SDS011;4884;42.614;23.340;2023-03-21T04:36:29;18.20;;;15.00;;
9689;SDS011;4884;42.614;23.340;2023-03-21T04:39:02;17.67;;;14.10;;
9689;SDS011;4884;42.614;23.340;2023-03-21T04:41:29;10.57;;;9.47;;
9689;SDS011;4884;42.614;23.340;2023-03-21T04:43:55;15.43;;;10.10;;
9689;SDS011;4884;42.614;23.340;2023-03-21T04:46:21;7.77;;;5.70;;
9689;SDS011;4884;42.614;23.340;2023-03-21T04:48:47;6.13;;;5.03;;
9689;SDS011;4884;42.614;23.340;2023-03-21T04:51:13;8.50;;;5.27;;
9689;SDS011;4884;42.614;23.340;2023-03-21T04:53:39;7.33;;;5.83;;
9689;SDS011;4884;42.614;23.340;2023-03-21T04:56:07;7.87;;;5.60;;
9689;SDS011;4884;42.614;23.340;2023-03-21T04:58:33;10.60;;;8.23;;
9689;SDS011;4884;42.614;23.340;2023-03-21T05:00:58;91.13;;;62.73;;
9689;SDS011;4884;42.614;23.340;2023-03-21T05:03:26;173.43;;;120.43;;
9689;SDS011;4884;42.614;23.340;2023-03-21T05:05:53;126.23;;;95.63;;
9689;SDS011;4884;42.614;23.340;2023-03-21T05:08:19;52.90;;;42.70;;
9689;SDS011;4884;42.614;23.340;2023-03-21T05:10:45;95.10;;;71.77;;
9689;SDS011;4884;42.614;23.340;2023-03-21T05:13:10;156.07;;;110.97;;
9689;SDS011;4884;42.614;23.340;2023-03-21T05:15:36;124.83;;;84.73;;
9689;SDS011;4884;42.614;23.340;2023-03-21T05:18:01;92.70;;;62.27;;
9689;SDS011;4884;42.614;23.340;2023-03-21T05:20:34;52.93;;;37.27;;
9689;SDS011;4884;42.614;23.340;2023-03-21T05:22:59;42.27;;;31.83;;
9689;SDS011;4884;42.614;23.340;2023-03-21T05:25:25;41.17;;;32.77;;
9689;SDS011;4884;42.614;23.340;2023-03-21T05:27:58;34.63;;;27.60;;
9689;SDS011;4884;42.614;23.340;2023-03-21T05:30:26;23.47;;;13.67;;
9689;SDS011;4884;42.614;23.340;2023-03-21T05:32:52;37.67;;;22.83;;
9689;SDS011;4884;42.614;23.340;2023-03-21T05:35:17;23.53;;;15.87;;
9689;SDS011;4884;42.614;23.340;2023-03-21T05:37:42;29.63;;;20.40;;
9689;SDS011;4884;42.614;23.340;2023-03-21T05:40:08;27.13;;;18.60;;
9689;SDS011;4884;42.614;23.340;2023-03-21T05:42:34;18.13;;;12.37;;
9689;SDS011;4884;42.614;23.340;2023-03-21T05:44:59;12.87;;;9.00;;
9689;SDS011;4884;42.614;23.340;2023-03-21T05:47:25;15.03;;;10.70;;
9689;SDS011;4884;42.614;23.340;2023-03-21T05:49:50;18.20;;;10.47;;
9689;SDS011;4884;42.614;23.340;2023-03-21T05:52:16;22.50;;;12.47;;
9689;SDS011;4884;42.614;23.340;2023-03-21T05:54:41;22.83;;;12.90;;
9689;SDS011;4884;42.614;23.340;2023-03-21T05:57:07;18.20;;;12.30;;
9689;SDS011;4884;42.614;23.340;2023-03-21T05:59:32;11.80;;;9.87;;
9689;SDS011;4884;42.614;23.340;2023-03-21T06:01:58;22.10;;;12.60;;
9689;SDS011;4884;42.614;23.340;2023-03-21T06:04:23;21.40;;;14.73;;
9689;SDS011;4884;42.614;23.340;2023-03-21T06:06:49;21.40;;;13.83;;
9689;SDS011;4884;42.614;23.340;2023-03-21T06:09:16;17.80;;;12.30;;
9689;SDS011;4884;42.614;23.340;2023-03-21T06:11:43;17.30;;;10.17;;
9689;SDS011;4884;42.614;23.340;2023-03-21T06:14:11;24.57;;;13.30;;
9689;SDS011;4884;42.614;23.340;2023-03-21T06:16:36;24.13;;;15.50;;
9689;SDS011;4884;42.614;23.340;2023-03-21T06:19:02;22.20;;;13.93;;
9689;SDS011;4884;42.614;23.340;2023-03-21T06:21:27;18.67;;;12.27;;
9689;SDS011;4884;42.614;23.340;2023-03-21T06:23:52;15.03;;;9.33;;
9689;SDS011;4884;42.614;23.340;2023-03-21T06:26:18;19.53;;;10.73;;
9689;SDS011;4884;42.614;23.340;2023-03-21T06:28:51;15.03;;;11.43;;
9689;SDS011;4884;42.614;23.340;2023-03-21T06:31:16;13.13;;;10.60;;
9689;SDS011;4884;42.614;23.340;2023-03-21T06:33:42;12.77;;;8.90;;
9689;SDS011;4884;42.614;23.340;2023-03-21T06:36:07;8.80;;;6.70;;
9689;SDS011;4884;42.614;23.340;2023-03-21T06:38:33;9.13;;;6.37;;
9689;SDS011;4884;42.614;23.340;2023-03-21T06:41:02;11.10;;;6.83;;
9689;SDS011;4884;42.614;23.340;2023-03-21T06:43:28;14.40;;;9.97;;
9689;SDS011;4884;42.614;23.340;2023-03-21T06:45:55;13.53;;;10.70;;
9689;SDS011;4884;42.614;23.340;2023-03-21T06:48:20;17.57;;;11.80;;
9689;SDS011;4884;42.614;23.340;2023-03-21T06:50:47;14.80;;;10.37;;
9689;SDS011;4884;42.614;23.340;2023-03-21T06:53:13;11.47;;;10.27;;
9689;SDS011;4884;42.614;23.340;2023-03-21T06:55:38;15.40;;;10.53;;
9689;SDS011;4884;42.614;23.340;2023-03-21T06:58:04;14.80;;;10.50;;
9689;SDS011;4884;42.614;23.340;2023-03-21T07:00:29;22.03;;;12.10;;
9689;SDS011;4884;42.614;23.340;2023-03-21T07:02:55;16.03;;;11.17;;
9689;SDS011;4884;42.614;23.340;2023-03-21T07:05:20;17.50;;;11.30;;
9689;SDS011;4884;42.614;23.340;2023-03-21T07:07:45;23.83;;;12.50;;
9689;SDS011;4884;42.614;23.340;2023-03-21T07:10:12;25.33;;;12.57;;
9689;SDS011;4884;42.614;23.340;2023-03-21T07:12:38;27.43;;;12.60;;
9689;SDS011;4884;42.614;23.340;2023-03-21T07:15:03;21.43;;;12.43;;
9689;SDS011;4884;42.614;23.340;2023-03-21T07:17:30;21.67;;;12.13;;
9689;SDS011;4884;42.614;23.340;2023-03-21T07:19:56;20.10;;;12.50;;
9689;SDS011;4884;42.614;23.340;2023-03-21T07:22:22;19.30;;;11.57;;
9689;SDS011;4884;42.614;23.340;2023-03-21T07:24:47;22.33;;;11.73;;
9689;SDS011;4884;42.614;23.340;2023-03-21T07:27:13;15.43;;;10.83;;
9689;SDS011;4884;42.614;23.340;2023-03-21T07:29:39;17.20;;;10.47;;
9689;SDS011;4884;42.614;23.340;2023-03-21T07:32:05;19.47;;;10.73;;
9689;SDS011;4884;42.614;23.340;2023-03-21T07:34:31;12.93;;;10.33;;
9689;SDS011;4884;42.614;23.340;2023-03-21T07:36:57;19.87;;;11.70;;
9689;SDS011;4884;42.614;23.340;2023-03-21T07:39:23;18.03;;;11.27;;
9689;SDS011;4884;42.614;23.340;2023-03-21T07:41:50;16.10;;;11.97;;
9689;SDS011;4884;42.614;23.340;2023-03-21T07:44:15;17.07;;;11.90;;
9689;SDS011;4884;42.614;23.340;2023-03-21T07:46:40;25.27;;;13.10;;
9689;SDS011;4884;42.614;23.340;2023-03-21T07:49:06;20.27;;;12.27;;
9689;SDS011;4884;42.614;23.340;2023-03-21T07:51:33;23.40;;;11.77;;
9689;SDS011;4884;42.614;23.340;2023-03-21T07:53:59;22.20;;;11.60;;
9689;SDS011;4884;42.614;23.340;2023-03-21T07:56:26;30.00;;;13.20;;
9689;SDS011;4884;42.614;23.340;2023-03-21T07:58:52;19.03;;;12.40;;
9689;SDS011;4884;42.614;23.340;2023-03-21T08:01:17;17.30;;;13.47;;
9689;SDS011;4884;42.614;23.340;2023-03-21T08:03:42;18.07;;;13.63;;
9689;SDS011;4884;42.614;23.340;2023-03-21T08:06:08;20.53;;;12.77;;
9689;SDS011;4884;42.614;23.340;2023-03-21T08:08:34;16.00;;;12.97;;
9689;SDS011;4884;42.614;23.340;2023-03-21T08:10:59;23.37;;;13.53;;
9689;SDS011;4884;42.614;23.340;2023-03-21T08:13:25;18.80;;;13.20;;
9689;SDS011;4884;42.614;23.340;2023-03-21T08:15:50;14.63;;;13.03;;
9689;SDS011;4884;42.614;23.340;2023-03-21T08:18:15;23.97;;;14.30;;
9689;SDS011;4884;42.614;23.340;2023-03-21T08:20:41;26.70;;;14.80;;
9689;SDS011;4884;42.614;23.340;2023-03-21T08:23:06;29.17;;;15.47;;
9689;SDS011;4884;42.614;23.340;2023-03-21T08:25:32;22.67;;;13.77;;
9689;SDS011;4884;42.614;23.340;2023-03-21T08:27:58;19.57;;;12.77;;
9689;SDS011;4884;42.614;23.340;2023-03-21T08:30:23;20.00;;;12.37;;
9689;SDS011;4884;42.614;23.340;2023-03-21T08:32:50;20.73;;;13.03;;
9689;SDS011;4884;42.614;23.340;2023-03-21T08:35:21;18.93;;;13.67;;
9689;SDS011;4884;42.614;23.340;2023-03-21T08:37:47;18.77;;;12.47;;
9689;SDS011;4884;42.614;23.340;2023-03-21T08:40:13;20.93;;;12.90;;
9689;SDS011;4884;42.614;23.340;2023-03-21T08:42:40;21.97;;;13.07;;
9689;SDS011;4884;42.614;23.340;2023-03-21T08:45:06;18.60;;;12.73;;
9689;SDS011;4884;42.614;23.340;2023-03-21T08:47:32;21.53;;;12.80;;
9689;SDS011;4884;42.614;23.340;2023-03-21T08:49:58;15.57;;;12.60;;
9689;SDS011;4884;42.614;23.340;2023-03-21T08:52:24;19.30;;;13.37;;
9689;SDS011;4884;42.614;23.340;2023-03-21T08:54:49;18.40;;;13.90;;
9689;SDS011;4884;42.614;23.340;2023-03-21T08:57:15;23.70;;;13.13;;
9689;SDS011;4884;42.614;23.340;2023-03-21T08:59:40;21.73;;;12.23;;
9689;SDS011;4884;42.614;23.340;2023-03-21T09:02:06;16.63;;;12.80;;
9689;SDS011;4884;42.614;23.340;2023-03-21T09:04:31;21.30;;;12.73;;
9689;SDS011;4884;42.614;23.340;2023-03-21T09:06:57;18.83;;;12.80;;
9689;SDS011;4884;42.614;23.340;2023-03-21T09:09:26;17.20;;;11.40;;
9689;SDS011;4884;42.614;23.340;2023-03-21T09:11:52;11.73;;;10.10;;
9689;SDS011;4884;42.614;23.340;2023-03-21T09:14:17;11.60;;;10.40;;
9689;SDS011;4884;42.614;23.340;2023-03-21T09:16:43;12.10;;;10.10;;
9689;SDS011;4884;42.614;23.340;2023-03-21T09:19:08;17.93;;;11.10;;
9689;SDS011;4884;42.614;23.340;2023-03-21T09:21:34;14.93;;;10.70;;
9689;SDS011;4884;42.614;23.340;2023-03-21T09:24:00;13.93;;;10.53;;
9689;SDS011;4884;42.614;23.340;2023-03-21T09:26:27;15.57;;;10.90;;
9689;SDS011;4884;42.614;23.340;2023-03-21T09:28:53;12.50;;;10.83;;
9689;SDS011;4884;42.614;23.340;2023-03-21T09:31:19;17.33;;;11.17;;
9689;SDS011;4884;42.614;23.340;2023-03-21T09:33:47;14.67;;;10.70;;
9689;SDS011;4884;42.614;23.340;2023-03-21T09:36:16;18.63;;;10.33;;
9689;SDS011;4884;42.614;23.340;2023-03-21T09:38:43;15.07;;;11.30;;
9689;SDS011;4884;42.614;23.340;2023-03-21T09:49:42;12.43;;;9.40;;
9689;SDS011;4884;42.614;23.340;2023-03-21T09:52:16;12.43;;;10.00;;
9689;SDS011;4884;42.614;23.340;2023-03-21T09:54:44;13.97;;;10.00;;
9689;SDS011;4884;42.614;23.340;2023-03-21T10:00:05;13.17;;;10.17;;
9689;SDS011;4884;42.614;23.340;2023-03-21T10:02:42;13.70;;;10.03;;
9689;SDS011;4884;42.614;23.340;2023-03-21T10:05:19;14.37;;;9.43;;
9689;SDS011;4884;42.614;23.340;2023-03-21T10:07:51;14.53;;;9.80;;
9689;SDS011;4884;42.614;23.340;2023-03-21T10:10:44;14.23;;;8.97;;
9689;SDS011;4884;42.614;23.340;2023-03-21T10:13:14;11.73;;;9.33;;
9689;SDS011;4884;42.614;23.340;2023-03-21T10:15:41;13.87;;;9.23;;
9689;SDS011;4884;42.614;23.340;2023-03-21T10:18:09;18.87;;;9.87;;
9689;SDS011;4884;42.614;23.340;2023-03-21T10:20:40;12.50;;;8.80;;
9689;SDS011;4884;42.614;23.340;2023-03-21T10:23:06;11.20;;;8.07;;
9689;SDS011;4884;42.614;23.340;2023-03-21T10:25:38;10.00;;;7.30;;
9689;SDS011;4884;42.614;23.340;2023-03-21T10:28:05;11.33;;;9.07;;
9689;SDS011;4884;42.614;23.340;2023-03-21T10:33:12;14.53;;;9.20;;
9689;SDS011;4884;42.614;23.340;2023-03-21T10:35:40;11.00;;;9.83;;
9689;SDS011;4884;42.614;23.340;2023-03-21T10:38:06;10.40;;;9.20;;
9689;SDS011;4884;42.614;23.340;2023-03-21T10:40:39;10.53;;;8.87;;
9689;SDS011;4884;42.614;23.340;2023-03-21T10:45:53;13.83;;;8.60;;
9689;SDS011;4884;42.614;23.340;2023-03-21T10:48:18;12.00;;;8.60;;
9689;SDS011;4884;42.614;23.340;2023-03-21T10:50:45;13.03;;;9.47;;
9689;SDS011;4884;42.614;23.340;2023-03-21T10:53:13;10.53;;;8.63;;
9689;SDS011;4884;42.614;23.340;2023-03-21T10:55:42;12.10;;;8.70;;
9689;SDS011;4884;42.614;23.340;2023-03-21T10:58:12;12.03;;;9.67;;
9689;SDS011;4884;42.614;23.340;2023-03-21T11:00:42;13.50;;;10.13;;
9689;SDS011;4884;42.614;23.340;2023-03-21T11:03:21;9.90;;;8.40;;
9689;SDS011;4884;42.614;23.340;2023-03-21T11:05:52;11.53;;;8.70;;
9689;SDS011;4884;42.614;23.340;2023-03-21T11:08:18;12.93;;;8.50;;
9689;SDS011;4884;42.614;23.340;2023-03-21T11:13:24;10.27;;;7.83;;
9689;SDS011;4884;42.614;23.340;2023-03-21T11:15:52;10.10;;;8.83;;
9689;SDS011;4884;42.614;23.340;2023-03-21T11:18:26;11.20;;;10.10;;
9689;SDS011;4884;42.614;23.340;2023-03-21T11:21:01;10.73;;;9.60;;
9689;SDS011;4884;42.614;23.340;2023-03-21T11:23:29;11.03;;;9.37;;
9689;SDS011;4884;42.614;23.340;2023-03-21T11:25:57;9.70;;;7.77;;
9689;SDS011;4884;42.614;23.340;2023-03-21T11:28:25;10.47;;;8.77;;
9689;SDS011;4884;42.614;23.340;2023-03-21T11:30:57;10.43;;;8.13;;
9689;SDS011;4884;42.614;23.340;2023-03-21T11:33:25;9.40;;;7.83;;
9689;SDS011;4884;42.614;23.340;2023-03-21T11:36:03;10.73;;;7.53;;
9689;SDS011;4884;42.614;23.340;2023-03-21T11:38:38;8.87;;;7.97;;
9689;SDS011;4884;42.614;23.340;2023-03-21T11:41:05;7.67;;;6.77;;
9689;SDS011;4884;42.614;23.340;2023-03-21T11:43:33;5.30;;;4.80;;
9689;SDS011;4884;42.614;23.340;2023-03-21T11:48:28;8.57;;;7.70;;
9689;SDS011;4884;42.614;23.340;2023-03-21T11:51:09;14.57;;;10.00;;
9689;SDS011;4884;42.614;23.340;2023-03-21T11:53:42;9.53;;;7.70;;
9689;SDS011;4884;42.614;23.340;2023-03-21T12:04:37;9.77;;;8.17;;
9689;SDS011;4884;42.614;23.340;2023-03-21T12:12:43;10.83;;;7.13;;
9689;SDS011;4884;42.614;23.340;2023-03-21T12:15:18;10.03;;;7.90;;
9689;SDS011;4884;42.614;23.340;2023-03-21T12:31:24;11.07;;;6.97;;
9689;SDS011;4884;42.614;23.340;2023-03-21T12:34:16;12.20;;;7.93;;
9689;SDS011;4884;42.614;23.340;2023-03-21T12:39:54;8.37;;;7.50;;
9689;SDS011;4884;42.614;23.340;2023-03-21T12:47:42;10.23;;;6.90;;
9689;SDS011;4884;42.614;23.340;2023-03-21T12:50:21;7.97;;;6.47;;
9689;SDS011;4884;42.614;23.340;2023-03-21T12:52:51;8.30;;;6.90;;
9689;SDS011;4884;42.614;23.340;2023-03-21T12:55:26;9.27;;;6.27;;
9689;SDS011;4884;42.614;23.340;2023-03-21T12:57:57;9.17;;;7.27;;
9689;SDS011;4884;42.614;23.340;2023-03-21T13:03:10;8.23;;;7.07;;
9689;SDS011;4884;42.614;23.340;2023-03-21T13:05:41;9.13;;;6.67;;
9689;SDS011;4884;42.614;23.340;2023-03-21T13:08:24;7.70;;;6.93;;
9689;SDS011;4884;42.614;23.340;2023-03-21T13:10:51;10.40;;;7.40;;
9689;SDS011;4884;42.614;23.340;2023-03-21T13:13:23;8.10;;;7.07;;
9689;SDS011;4884;42.614;23.340;2023-03-21T13:24:14;8.43;;;7.20;;
9689;SDS011;4884;42.614;23.340;2023-03-21T13:26:44;12.87;;;7.57;;
9689;SDS011;4884;42.614;23.340;2023-03-21T13:29:27;8.83;;;7.87;;
9689;SDS011;4884;42.614;23.340;2023-03-21T13:31:58;9.27;;;7.27;;
9689;SDS011;4884;42.614;23.340;2023-03-21T13:34:31;7.87;;;6.33;;
9689;SDS011;4884;42.614;23.340;2023-03-21T13:36:56;8.40;;;6.77;;
9689;SDS011;4884;42.614;23.340;2023-03-21T13:39:25;7.37;;;5.97;;
9689;SDS011;4884;42.614;23.340;2023-03-21T13:41:52;10.17;;;7.43;;
9689;SDS011;4884;42.614;23.340;2023-03-21T13:46:50;8.97;;;6.80;;
9689;SDS011;4884;42.614;23.340;2023-03-21T13:49:32;11.77;;;7.17;;
9689;SDS011;4884;42.614;23.340;2023-03-21T13:52:00;8.57;;;7.17;;
9689;SDS011;4884;42.614;23.340;2023-03-21T13:54:52;10.43;;;7.40;;
9689;SDS011;4884;42.614;23.340;2023-03-21T13:57:21;11.03;;;7.10;;
9689;SDS011;4884;42.614;23.340;2023-03-21T13:59:47;7.20;;;6.50;;
9689;SDS011;4884;42.614;23.340;2023-03-21T14:04:51;8.93;;;6.80;;
9689;SDS011;4884;42.614;23.340;2023-03-21T14:07:20;10.83;;;6.70;;
9689;SDS011;4884;42.614;23.340;2023-03-21T14:09:49;8.03;;;6.77;;
9689;SDS011;4884;42.614;23.340;2023-03-21T14:12:17;7.37;;;6.60;;
9689;SDS011;4884;42.614;23.340;2023-03-21T14:14:57;12.43;;;6.87;;
9689;SDS011;4884;42.614;23.340;2023-03-21T14:19:59;8.03;;;7.00;;
9689;SDS011;4884;42.614;23.340;2023-03-21T14:22:26;7.90;;;7.10;;
9689;SDS011;4884;42.614;23.340;2023-03-21T14:24:59;9.13;;;7.00;;
9689;SDS011;4884;42.614;23.340;2023-03-21T14:27:27;11.00;;;6.60;;
9689;SDS011;4884;42.614;23.340;2023-03-21T14:29:55;7.43;;;5.93;;
9689;SDS011;4884;42.614;23.340;2023-03-21T14:32:22;9.07;;;6.73;;
9689;SDS011;4884;42.614;23.340;2023-03-21T14:34:48;6.93;;;6.20;;
9689;SDS011;4884;42.614;23.340;2023-03-21T14:37:27;6.63;;;6.00;;
9689;SDS011;4884;42.614;23.340;2023-03-21T14:39:59;8.70;;;6.27;;
9689;SDS011;4884;42.614;23.340;2023-03-21T14:42:26;7.07;;;5.87;;
9689;SDS011;4884;42.614;23.340;2023-03-21T14:44:52;7.63;;;6.83;;
9689;SDS011;4884;42.614;23.340;2023-03-21T14:47:26;11.80;;;6.23;;
9689;SDS011;4884;42.614;23.340;2023-03-21T14:49:53;14.80;;;6.80;;
9689;SDS011;4884;42.614;23.340;2023-03-21T14:52:22;11.50;;;10.47;;
9689;SDS011;4884;42.614;23.340;2023-03-21T14:54:49;12.17;;;7.87;;
9689;SDS011;4884;42.614;23.340;2023-03-21T14:57:19;11.23;;;8.20;;
9689;SDS011;4884;42.614;23.340;2023-03-21T14:59:46;9.23;;;7.30;;
9689;SDS011;4884;42.614;23.340;2023-03-21T15:04:54;9.43;;;7.07;;
9689;SDS011;4884;42.614;23.340;2023-03-21T15:12:49;7.50;;;5.93;;
9689;SDS011;4884;42.614;23.340;2023-03-21T15:15:15;6.20;;;5.63;;
9689;SDS011;4884;42.614;23.340;2023-03-21T15:17:41;8.73;;;7.83;;
9689;SDS011;4884;42.614;23.340;2023-03-21T15:20:06;8.27;;;6.93;;
9689;SDS011;4884;42.614;23.340;2023-03-21T15:22:38;8.10;;;7.30;;
9689;SDS011;4884;42.614;23.340;2023-03-21T15:25:06;10.93;;;7.43;;
9689;SDS011;4884;42.614;23.340;2023-03-21T15:27:40;8.00;;;7.20;;
9689;SDS011;4884;42.614;23.340;2023-03-21T15:30:06;8.27;;;7.03;;
9689;SDS011;4884;42.614;23.340;2023-03-21T15:32:39;14.13;;;11.73;;
9689;SDS011;4884;42.614;23.340;2023-03-21T15:35:06;20.70;;;18.70;;
9689;SDS011;4884;42.614;23.340;2023-03-21T15:37:33;23.83;;;17.20;;
9689;SDS011;4884;42.614;23.340;2023-03-21T15:42:36;17.07;;;12.60;;
9689;SDS011;4884;42.614;23.340;2023-03-21T15:45:07;23.43;;;16.13;;
9689;SDS011;4884;42.614;23.340;2023-03-21T15:50:07;15.63;;;11.73;;
9689;SDS011;4884;42.614;23.340;2023-03-21T15:52:33;12.03;;;9.87;;
9689;SDS011;4884;42.614;23.340;2023-03-21T15:55:00;9.37;;;8.20;;
9689;SDS011;4884;42.614;23.340;2023-03-21T15:57:30;9.57;;;7.80;;
9689;SDS011;4884;42.614;23.340;2023-03-21T16:02:45;18.53;;;14.97;;
9689;SDS011;4884;42.614;23.340;2023-03-21T16:05:28;22.03;;;16.10;;
9689;SDS011;4884;42.614;23.340;2023-03-21T16:08:05;29.47;;;22.20;;
9689;SDS011;4884;42.614;23.340;2023-03-21T16:10:43;21.70;;;15.77;;
9689;SDS011;4884;42.614;23.340;2023-03-21T16:13:09;13.17;;;9.43;;
9689;SDS011;4884;42.614;23.340;2023-03-21T16:15:37;13.17;;;9.57;;
9689;SDS011;4884;42.614;23.340;2023-03-21T16:18:03;10.33;;;8.57;;
9689;SDS011;4884;42.614;23.340;2023-03-21T16:20:34;9.57;;;8.50;;
9689;SDS011;4884;42.614;23.340;2023-03-21T16:23:04;12.87;;;10.13;;
9689;SDS011;4884;42.614;23.340;2023-03-21T16:25:30;9.07;;;8.03;;
9689;SDS011;4884;42.614;23.340;2023-03-21T16:27:56;18.27;;;14.00;;
9689;SDS011;4884;42.614;23.340;2023-03-21T16:30:22;89.37;;;64.77;;
9689;SDS011;4884;42.614;23.340;2023-03-21T16:32:48;17.30;;;14.43;;
9689;SDS011;4884;42.614;23.340;2023-03-21T16:35:15;16.70;;;14.53;;
9689;SDS011;4884;42.614;23.340;2023-03-21T16:37:40;14.20;;;12.63;;
9689;SDS011;4884;42.614;23.340;2023-03-21T16:40:18;16.13;;;11.70;;
9689;SDS011;4884;42.614;23.340;2023-03-21T16:42:47;13.23;;;11.87;;
9689;SDS011;4884;42.614;23.340;2023-03-21T16:45:13;18.87;;;13.63;;
9689;SDS011;4884;42.614;23.340;2023-03-21T16:47:38;31.73;;;23.80;;
9689;SDS011;4884;42.614;23.340;2023-03-21T16:52:56;50.07;;;39.20;;
9689;SDS011;4884;42.614;23.340;2023-03-21T16:55:22;43.80;;;34.53;;
9689;SDS011;4884;42.614;23.340;2023-03-21T16:57:48;37.03;;;30.50;;
9689;SDS011;4884;42.614;23.340;2023-03-21T17:00:19;29.03;;;24.30;;
9689;SDS011;4884;42.614;23.340;2023-03-21T17:02:47;29.93;;;22.53;;